Time;durP1;ratioP1;P1;durP2;ratioP2;P2;SDS_P1;SDS_P2;PMS_P1;PMS_P2;Temp;Humidity;BMP_temperature;BMP_pressure;BME280_temperature;BME280_humidity;BME280_pressure;Samples;Min_cycle;Max_cycle;Signal;HPM_P1;HPM_P2
2022/04/07 00:00:51;;;;;;;;;1.00;1.00;;;;;12.94;65.68;99751.28;5071197;28;45402;-69
2022/04/07 00:03:17;;;;;;;;;0.00;0.00;;;;;12.93;65.65;99746.97;5070511;28;45566;-70
2022/04/07 00:05:42;;;;;;;;;1.00;1.00;;;;;12.94;65.69;99737.22;5070477;28;45881;-70
2022/04/07 00:08:08;;;;;;;;;0.00;0.00;;;;;12.93;65.56;99733.75;5067666;28;45352;-69
2022/04/07 00:10:34;;;;;;;;;2.00;0.00;;;;;12.94;65.50;99718.72;5069426;28;45489;-69
2022/04/07 00:13:00;;;;;;;;;0.00;0.00;;;;;12.92;65.26;99710.09;5070730;28;45470;-69
2022/04/07 00:15:26;;;;;;;;;2.50;0.00;;;;;12.91;65.35;99716.34;5069488;28;46201;-70
2022/04/07 00:17:52;;;;;;;;;2.00;0.50;;;;;12.88;65.21;99703.41;5070767;28;45405;-69
2022/04/07 00:20:18;;;;;;;;;1.00;0.25;;;;;12.88;65.16;99698.13;5072825;28;45306;-70
2022/04/07 00:22:44;;;;;;;;;0.75;0.25;;;;;12.88;65.03;99708.69;5071401;28;45165;-69
2022/04/07 00:25:10;;;;;;;;;1.50;1.00;;;;;12.87;64.96;99702.53;5067587;28;46198;-69
2022/04/07 00:27:35;;;;;;;;;0.25;0.00;;;;;12.86;65.29;99695.59;5071070;28;45294;-70
2022/04/07 00:30:02;;;;;;;;;1.00;0.50;;;;;12.88;65.08;99698.13;5071367;28;45342;-69
2022/04/07 00:32:29;;;;;;;;;3.00;1.00;;;;;12.88;65.34;99690.19;5071461;28;45323;-69
2022/04/07 00:34:56;;;;;;;;;3.25;1.00;;;;;12.88;65.06;99695.47;5070761;28;46089;-69
2022/04/07 00:37:25;;;;;;;;;1.25;1.00;;;;;12.90;64.98;99689.09;5070489;28;45467;-69
2022/04/07 00:39:51;;;;;;;;;1.00;1.00;;;;;12.90;64.93;99691.72;5071984;28;45426;-69
2022/04/07 00:42:17;;;;;;;;;0.75;0.00;;;;;12.91;64.97;99685.47;5068956;28;45399;-69
2022/04/07 00:44:44;;;;;;;;;2.00;0.00;;;;;12.93;64.78;99678.25;5068400;28;46021;-69
2022/04/07 00:47:10;;;;;;;;;0.75;0.75;;;;;12.94;64.63;99674.63;5069377;28;45339;-69
2022/04/07 00:49:35;;;;;;;;;1.75;0.75;;;;;12.96;64.49;99671.88;5068085;28;45355;-69
2022/04/07 00:52:02;;;;;;;;;1.00;1.00;;;;;12.97;64.56;99660.31;5071295;28;45443;-68
2022/04/07 00:54:28;;;;;;;;;2.25;0.75;;;;;12.98;64.45;99654.91;5070650;28;45165;-69
2022/04/07 00:57:00;;;;;;;;;0.00;0.00;;;;;12.97;64.56;99647.94;5071502;28;45227;-69
2022/04/07 00:59:27;;;;;;;;;2.25;0.75;;;;;13.00;64.49;99638.91;5072237;28;45461;-70
2022/04/07 01:01:53;;;;;;;;;2.25;1.00;;;;;12.98;64.29;99636.41;5071175;28;45573;-70
2022/04/07 01:04:19;;;;;;;;;0.75;0.75;;;;;12.98;64.60;99631.09;5070830;28;45457;-70
2022/04/07 01:06:47;;;;;;;;;1.25;1.00;;;;;12.99;64.27;99616.91;5069214;28;45310;-69
2022/04/07 01:09:14;;;;;;;;;2.00;1.00;;;;;12.99;64.32;99606.34;5068559;28;45378;-70
2022/04/07 01:11:41;;;;;;;;;3.00;1.00;;;;;13.00;64.29;99597.44;5068223;28;45407;-69
2022/04/07 01:14:07;;;;;;;;;3.75;1.00;;;;;13.01;64.15;99598.28;5069539;28;46541;-70
2022/04/07 01:16:34;;;;;;;;;1.00;1.00;;;;;13.00;64.33;99589.50;5066021;28;45371;-70
2022/04/07 01:19:00;;;;;;;;;1.00;1.00;;;;;13.02;64.24;99594.66;5069327;27;45335;-70
2022/04/07 01:21:27;;;;;;;;;2.25;1.00;;;;;13.02;64.25;99590.19;5068995;28;45531;-69
2022/04/07 01:24:02;;;;;;;;;2.00;1.00;;;;;13.02;64.21;99579.63;5068544;28;45383;-70
2022/04/07 01:26:32;;;;;;;;;8.25;1.00;;;;;13.02;64.69;99587.56;5069709;28;45376;-69
2022/04/07 01:29:00;;;;;;;;;2.50;0.75;;;;;12.98;65.58;99591.44;5065043;28;45317;-69
2022/04/07 01:31:26;;;;;;;;;3.75;2.75;;;;;12.93;65.72;99592.81;5068162;28;45526;-69
2022/04/07 01:33:52;;;;;;;;;2.75;1.00;;;;;12.89;65.83;99592.25;5068452;28;45337;-70
2022/04/07 01:36:18;;;;;;;;;2.00;1.00;;;;;12.90;66.27;99590.44;5069928;28;45291;-70
2022/04/07 01:38:45;;;;;;;;;2.50;0.00;;;;;12.88;66.21;99590.59;5073195;28;45422;-69
2022/04/07 01:41:12;;;;;;;;;1.00;1.00;;;;;12.86;66.26;99571.38;5071599;28;45399;-69
2022/04/07 01:43:40;;;;;;;;;1.00;0.00;;;;;12.84;65.93;99579.44;5073280;28;45445;-69
2022/04/07 01:46:07;;;;;;;;;3.00;2.00;;;;;12.83;66.11;99559.25;5070372;28;45402;-69
2022/04/07 01:48:32;;;;;;;;;0.50;0.50;;;;;12.85;66.28;99565.25;5071781;28;45278;-69
2022/04/07 01:50:58;;;;;;;;;0.00;0.00;;;;;12.88;65.98;99555.41;5073247;28;45230;-69
2022/04/07 01:53:25;;;;;;;;;1.00;0.50;;;;;12.85;65.91;99544.09;5073055;28;46220;-69
2022/04/07 01:55:51;;;;;;;;;2.50;1.00;;;;;12.86;66.09;99535.19;5076147;28;45341;-69
2022/04/07 01:58:18;;;;;;;;;1.00;1.00;;;;;12.86;66.08;99539.66;5074005;28;45425;-69
2022/04/07 02:00:44;;;;;;;;;3.75;0.00;;;;;12.86;66.14;99535.19;5073911;28;45246;-69
2022/04/07 02:03:10;;;;;;;;;3.00;1.00;;;;;12.89;66.21;99541.22;5072676;28;45318;-69
2022/04/07 02:05:36;;;;;;;;;2.00;0.75;;;;;12.88;66.60;99547.47;5073002;28;45236;-69
2022/04/07 02:08:01;;;;;;;;;2.25;0.75;;;;;12.84;67.36;99538.97;5072076;28;45513;-69
2022/04/07 02:10:28;;;;;;;;;1.00;1.00;;;;;12.79;67.30;99539.34;5069308;28;45497;-70
2022/04/07 02:12:54;;;;;;;;;1.00;0.50;;;;;12.76;67.40;99523.78;5078427;28;45367;-69
2022/04/07 02:15:19;;;;;;;;;1.00;1.00;;;;;12.76;67.42;99530.88;5073063;28;45409;-69
2022/04/07 02:17:45;;;;;;;;;2.50;1.75;;;;;12.72;67.69;99525.03;5072675;28;45369;-70
2022/04/07 02:20:12;;;;;;;;;0.50;0.50;;;;;12.69;67.64;99524.44;5075582;28;45662;-70
2022/04/07 02:22:38;;;;;;;;;1.00;0.00;;;;;12.68;67.82;99523.59;5071818;28;45437;-69
2022/04/07 02:25:04;;;;;;;;;1.00;0.75;;;;;12.67;67.88;99521.94;5071052;28;45448;-69
2022/04/07 02:27:39;;;;;;;;;2.00;1.00;;;;;12.67;67.95;99510.53;5072349;28;45441;-70
2022/04/07 02:30:07;;;;;;;;;1.00;1.00;;;;;12.67;67.99;99494.69;5069848;28;45332;-69
2022/04/07 02:32:33;;;;;;;;;3.00;1.00;;;;;12.68;68.17;99501.63;5070567;28;45490;-69
2022/04/07 02:34:58;;;;;;;;;2.00;1.25;;;;;12.69;68.15;99488.28;5069483;28;45342;-70
2022/04/07 02:37:25;;;;;;;;;2.50;1.00;;;;;12.68;68.55;99483.97;5072685;28;45347;-70
2022/04/07 02:39:54;;;;;;;;;4.50;1.00;;;;;12.68;68.99;99477.84;5073387;28;45323;-69
2022/04/07 02:42:20;;;;;;;;;1.00;1.00;;;;;12.65;68.87;99478.97;5071585;28;46075;-70
2022/04/07 02:44:45;;;;;;;;;1.00;0.75;;;;;12.65;69.35;99451.72;5071282;28;45383;-70
2022/04/07 02:47:11;;;;;;;;;4.25;1.00;;;;;12.64;69.68;99455.31;5071893;28;45402;-70
2022/04/07 02:49:39;;;;;;;;;4.00;1.00;;;;;12.63;69.58;99459.75;5070255;28;45395;-70
2022/04/07 02:52:10;;;;;;;;;1.00;1.00;;;;;12.62;69.69;99446.69;5073810;28;46441;-70
2022/04/07 02:54:37;;;;;;;;;1.00;0.50;;;;;12.60;69.76;99443.34;5071166;28;45405;-70
2022/04/07 02:57:03;;;;;;;;;1.00;1.00;;;;;12.59;70.08;99445.16;5070694;28;45319;-70
2022/04/07 02:59:29;;;;;;;;;1.25;0.00;;;;;12.59;69.96;99429.31;5071479;28;45331;-70
2022/04/07 03:01:56;;;;;;;;;1.00;1.00;;;;;12.62;70.08;99426.38;5071651;28;45310;-70
2022/04/07 03:04:24;;;;;;;;;1.00;0.75;;;;;12.63;70.27;99420.13;5072316;28;45462;-70
2022/04/07 03:06:51;;;;;;;;;3.00;1.75;;;;;12.65;70.26;99415.56;5073149;28;45434;-70
2022/04/07 03:09:18;;;;;;;;;2.00;0.00;;;;;12.66;70.08;99422.53;5070607;28;45331;-70
2022/04/07 03:11:43;;;;;;;;;1.50;0.00;;;;;12.70;70.17;99407.22;5070055;28;45345;-70
2022/04/07 03:14:09;;;;;;;;;1.50;0.00;;;;;12.72;70.16;99405.28;5079708;28;45335;-70
2022/04/07 03:16:34;;;;;;;;;4.00;0.25;;;;;12.74;70.20;99403.34;5071885;28;45430;-70
2022/04/07 03:18:59;;;;;;;;;1.00;0.50;;;;;12.73;70.26;99393.75;5072200;28;45311;-70
2022/04/07 03:21:25;;;;;;;;;1.00;0.75;;;;;12.76;70.10;99388.19;5073928;28;45286;-70
2022/04/07 03:23:50;;;;;;;;;1.00;1.00;;;;;12.76;70.01;99377.59;5069724;28;45257;-70
2022/04/07 03:26:16;;;;;;;;;1.00;0.25;;;;;12.76;70.00;99380.25;5070172;28;45236;-69
2022/04/07 03:28:41;;;;;;;;;1.25;1.25;;;;;12.74;70.19;99359.25;5071200;28;45212;-70
2022/04/07 03:31:07;;;;;;;;;1.00;0.00;;;;;12.77;70.45;99352.84;5072312;28;45274;-70
2022/04/07 03:33:32;;;;;;;;;2.50;1.50;;;;;12.78;70.08;99336.03;5072713;28;45255;-70
2022/04/07 03:35:58;;;;;;;;;2.50;0.75;;;;;12.80;70.35;99334.09;5073180;28;45309;-70
2022/04/07 03:38:23;;;;;;;;;1.00;1.00;;;;;12.80;70.30;99328.81;5071004;28;45215;-70
2022/04/07 03:40:49;;;;;;;;;0.50;0.50;;;;;12.83;70.60;99317.94;5074334;28;45513;-70
2022/04/07 03:43:15;;;;;;;;;2.00;1.00;;;;;12.84;70.66;99314.31;5072450;28;45318;-70
2022/04/07 03:45:40;;;;;;;;;2.00;1.00;;;;;12.89;70.71;99306.00;5072775;28;45491;-70
2022/04/07 03:48:07;;;;;;;;;1.50;1.50;;;;;12.88;70.69;99293.75;5072345;28;45247;-70
2022/04/07 03:50:33;;;;;;;;;3.00;1.25;;;;;12.87;70.81;99287.59;5070476;28;45500;-70
2022/04/07 03:52:58;;;;;;;;;3.75;1.50;;;;;12.86;70.99;99278.84;5071072;28;45334;-70
2022/04/07 03:55:24;;;;;;;;;5.50;2.00;;;;;12.84;71.00;99264.13;5069936;28;45349;-70
2022/04/07 03:57:49;;;;;;;;;2.75;2.00;;;;;12.86;71.15;99262.16;5068949;28;45308;-70
2022/04/07 04:00:16;;;;;;;;;6.00;1.00;;;;;12.83;71.20;99252.72;5070151;28;45369;-70
2022/04/07 04:02:42;;;;;;;;;1.00;1.00;;;;;12.84;71.41;99241.16;5069619;28;45233;-70
2022/04/07 04:05:08;;;;;;;;;3.50;2.00;;;;;12.88;71.38;99243.53;5072033;28;45284;-70
2022/04/07 04:07:34;;;;;;;;;3.00;2.00;;;;;12.88;71.35;99240.91;5072744;28;45529;-70
2022/04/07 04:10:01;;;;;;;;;2.00;1.25;;;;;12.89;71.45;99232.00;5072440;28;46203;-70
2022/04/07 04:12:26;;;;;;;;;3.75;0.50;;;;;12.90;71.32;99226.56;5070933;28;45500;-70
2022/04/07 04:14:52;;;;;;;;;3.25;2.00;;;;;12.92;71.43;99216.66;5072275;28;45470;-70
2022/04/07 04:17:17;;;;;;;;;2.00;1.25;;;;;12.92;71.14;99210.56;5072261;28;45472;-70
2022/04/07 04:19:43;;;;;;;;;3.75;2.00;;;;;12.93;71.69;99214.84;5071846;28;46434;-71
2022/04/07 04:22:08;;;;;;;;;3.25;1.00;;;;;12.94;71.60;99212.06;5072583;28;45399;-70
2022/04/07 04:24:34;;;;;;;;;1.75;0.00;;;;;12.96;71.61;99202.22;5071303;28;45470;-70
2022/04/07 04:27:00;;;;;;;;;0.25;0.25;;;;;12.97;71.61;99210.97;5070921;28;46348;-70
2022/04/07 04:29:25;;;;;;;;;2.00;1.00;;;;;12.99;71.75;99207.19;5071987;28;45473;-70
2022/04/07 04:31:51;;;;;;;;;2.00;1.00;;;;;12.98;71.73;99194.13;5072167;28;45295;-70
2022/04/07 04:34:16;;;;;;;;;1.00;1.00;;;;;13.00;71.69;99206.22;5070575;28;45264;-70
2022/04/07 04:36:42;;;;;;;;;3.00;1.00;;;;;13.02;71.54;99200.78;5071361;28;45216;-70
2022/04/07 04:39:07;;;;;;;;;1.50;1.50;;;;;13.05;71.52;99197.88;5071177;28;45498;-69
2022/04/07 04:41:33;;;;;;;;;1.00;1.00;;;;;13.08;71.48;99200.22;5072221;28;45240;-70
2022/04/07 04:44:00;;;;;;;;;3.00;2.00;;;;;13.06;71.65;99195.06;5071119;28;45335;-70
2022/04/07 04:46:26;;;;;;;;;1.75;1.25;;;;;13.07;71.81;99194.09;5070716;28;45238;-70
2022/04/07 04:48:52;;;;;;;;;2.00;2.00;;;;;13.06;71.70;99184.50;5068890;28;46267;-70
2022/04/07 04:51:17;;;;;;;;;2.00;2.00;;;;;13.05;72.06;99185.47;5068845;28;45389;-70
2022/04/07 04:53:43;;;;;;;;;4.25;1.50;;;;;13.06;71.95;99179.22;5069146;28;45382;-70
2022/04/07 04:56:08;;;;;;;;;2.00;2.00;;;;;13.07;71.72;99180.88;5069127;28;45434;-70
2022/04/07 04:58:34;;;;;;;;;1.00;1.00;;;;;13.09;71.99;99183.38;5070614;28;46117;-70
2022/04/07 05:00:59;;;;;;;;;3.00;1.00;;;;;13.10;71.74;99172.63;5069813;28;45314;-69
2022/04/07 05:03:25;;;;;;;;;2.75;1.50;;;;;13.11;71.77;99170.81;5071742;28;45243;-70
2022/04/07 05:05:50;;;;;;;;;2.00;1.25;;;;;13.12;71.66;99160.13;5071983;28;45293;-70
2022/04/07 05:08:18;;;;;;;;;4.00;1.25;;;;;13.14;71.52;99152.88;5070058;28;45964;-70
2022/04/07 05:10:44;;;;;;;;;1.00;0.00;;;;;13.17;71.45;99170.25;5070794;28;45181;-70
2022/04/07 05:13:09;;;;;;;;;5.25;1.00;;;;;13.19;71.12;99159.53;5074621;28;45283;-70
2022/04/07 05:15:37;;;;;;;;;4.25;1.25;;;;;13.21;71.16;99160.25;5074702;28;45569;-70
2022/04/07 05:18:03;;;;;;;;;5.00;2.00;;;;;13.21;71.09;99150.53;5071524;27;46271;-70
2022/04/07 05:20:29;;;;;;;;;3.25;2.00;;;;;13.23;70.89;99156.50;5071829;28;45473;-70
2022/04/07 05:22:54;;;;;;;;;4.50;2.00;;;;;13.28;70.90;99156.88;5075028;28;45422;-70
2022/04/07 05:25:20;;;;;;;;;4.50;2.75;;;;;13.31;70.62;99150.47;5073324;28;45450;-70
2022/04/07 05:27:45;;;;;;;;;1.25;1.25;;;;;13.31;70.63;99130.13;5074655;28;46207;-70
2022/04/07 05:30:13;;;;;;;;;1.25;0.00;;;;;13.32;70.81;99141.53;5075227;28;45437;-70
2022/04/07 05:32:39;;;;;;;;;1.00;1.00;;;;;13.34;70.48;99129.00;5076740;28;45421;-70
2022/04/07 05:35:05;;;;;;;;;11.75;6.50;;;;;13.35;70.48;99128.00;5083744;28;45185;-70
2022/04/07 05:37:31;;;;;;;;;11.75;8.25;;;;;13.36;70.54;99113.84;5078584;28;45362;-70
2022/04/07 05:39:56;;;;;;;;;12.50;11.00;;;;;13.38;70.57;99111.88;5077990;28;45350;-70
2022/04/07 05:42:22;;;;;;;;;16.25;11.00;;;;;13.37;70.33;99113.69;5072565;28;45456;-71
2022/04/07 05:44:47;;;;;;;;;11.75;9.75;;;;;13.38;70.52;99101.28;5072313;28;45460;-68
2022/04/07 05:47:13;;;;;;;;;16.00;13.25;;;;;13.41;70.45;99087.75;5075383;28;45500;-72
2022/04/07 05:49:38;;;;;;;;;7.75;4.25;;;;;13.41;69.95;99091.22;5063934;28;45469;-72
2022/04/07 05:52:04;;;;;;;;;8.25;7.50;;;;;13.44;69.98;99089.28;5063559;28;45294;-75
2022/04/07 05:54:34;;;;;;;;;7.00;5.00;;;;;13.46;69.58;99090.78;5063377;28;45366;-71
2022/04/07 05:57:00;;;;;;;;;3.25;3.25;;;;;13.49;69.42;99093.13;5062328;28;45565;-72
2022/04/07 05:59:26;;;;;;;;;1.50;1.50;;;;;13.53;69.47;99085.75;5071285;28;45351;-72
2022/04/07 06:01:52;;;;;;;;;2.75;1.00;;;;;13.55;69.42;99095.19;5067827;28;45435;-74
2022/04/07 06:04:17;;;;;;;;;4.00;1.25;;;;;13.58;69.07;99089.59;5062837;28;45351;-69
2022/04/07 06:06:43;;;;;;;;;2.25;1.00;;;;;13.62;69.25;99088.31;5063282;28;45271;-71
2022/04/07 06:09:09;;;;;;;;;1.75;0.75;;;;;13.63;68.76;99083.84;5062813;28;45353;-69
2022/04/07 06:11:35;;;;;;;;;3.00;1.00;;;;;13.65;68.84;99089.81;5075807;28;45425;-69
2022/04/07 06:14:01;;;;;;;;;1.50;0.00;;;;;13.68;68.51;99092.19;5093304;27;45320;-69
2022/04/07 06:16:27;;;;;;;;;5.00;1.00;;;;;13.69;68.31;99075.31;5062499;28;45457;-70
2022/04/07 06:18:53;;;;;;;;;1.50;0.75;;;;;13.69;68.52;99078.78;5075893;28;45379;-69
2022/04/07 06:21:20;;;;;;;;;1.00;1.00;;;;;13.72;68.41;99079.47;5074898;28;45164;-70
2022/04/07 06:23:46;;;;;;;;;0.25;0.25;;;;;13.72;68.36;99075.00;5064064;27;45768;-70
2022/04/07 06:26:12;;;;;;;;;2.50;0.00;;;;;13.71;68.31;99070.69;5062776;28;45481;-70
2022/04/07 06:28:40;;;;;;;;;2.00;1.00;;;;;13.70;68.55;99069.03;5062306;28;45252;-70
2022/04/07 06:31:05;;;;;;;;;4.25;2.25;;;;;13.72;68.36;99056.47;5062345;27;45392;-69
2022/04/07 06:33:31;;;;;;;;;2.50;0.50;;;;;13.73;68.20;99067.91;5062321;28;45547;-71
2022/04/07 06:35:57;;;;;;;;;4.00;2.00;;;;;13.72;68.68;99066.22;5062624;28;46246;-69
2022/04/07 06:38:23;;;;;;;;;2.00;1.75;;;;;13.68;68.94;99055.97;5062322;28;45245;-69
2022/04/07 06:40:48;;;;;;;;;1.25;1.00;;;;;13.66;69.15;99060.56;5068837;28;45166;-70
2022/04/07 06:43:14;;;;;;;;;1.25;1.00;;;;;13.67;68.93;99051.66;5062562;28;45451;-69
2022/04/07 06:45:39;;;;;;;;;3.25;1.00;;;;;13.66;69.09;99049.97;5062480;28;46288;-69
2022/04/07 06:48:05;;;;;;;;;5.75;2.50;;;;;13.67;69.18;99051.66;5062123;28;45251;-70
2022/04/07 06:50:31;;;;;;;;;4.25;1.25;;;;;13.66;69.21;99049.97;5065059;28;45414;-69
2022/04/07 06:52:58;;;;;;;;;19.50;6.25;;;;;13.69;69.28;99052.34;5072657;28;45503;-69
2022/04/07 06:55:24;;;;;;;;;1.00;1.00;;;;;13.73;69.09;99052.00;5070946;28;46300;-69
2022/04/07 06:57:51;;;;;;;;;2.00;1.00;;;;;13.76;69.43;99043.78;5070121;28;45491;-69
2022/04/07 07:00:18;;;;;;;;;2.00;1.25;;;;;13.82;69.00;99046.63;5071044;28;45283;-69
2022/04/07 07:02:52;;;;;;;;;2.25;2.00;;;;;13.83;68.93;99039.56;5063356;28;45359;-69
2022/04/07 07:05:18;;;;;;;;;2.00;1.00;;;;;13.83;69.01;99047.50;5062119;28;45461;-69
2022/04/07 07:07:44;;;;;;;;;4.00;1.00;;;;;13.80;69.03;99048.59;5062332;28;45224;-70
2022/04/07 07:10:09;;;;;;;;;2.25;1.00;;;;;13.85;69.03;99054.28;5062573;28;45229;-69
2022/04/07 07:12:35;;;;;;;;;3.75;1.00;;;;;13.88;69.27;99026.66;5072315;28;45509;-69
2022/04/07 07:15:00;;;;;;;;;2.75;1.00;;;;;13.89;69.16;99031.81;5072735;28;45990;-67
2022/04/07 07:17:33;;;;;;;;;2.00;1.00;;;;;13.88;68.67;99035.44;5072241;28;45384;-65
2022/04/07 07:20:07;;;;;;;;;1.00;1.00;;;;;13.90;69.21;99036.13;5069031;28;45235;-66
2022/04/07 07:22:32;;;;;;;;;3.75;2.00;;;;;13.96;69.24;99045.25;5073702;28;45683;-65
2022/04/07 07:24:58;;;;;;;;;2.50;1.00;;;;;14.03;69.00;99021.66;5074687;28;46183;-65
2022/04/07 07:27:24;;;;;;;;;1.00;1.00;;;;;14.05;68.98;99036.38;5072403;28;45264;-74
2022/04/07 07:29:50;;;;;;;;;2.00;1.00;;;;;14.05;69.15;99031.09;5064699;28;45462;-59
2022/04/07 07:32:16;;;;;;;;;0.00;0.00;;;;;14.07;69.11;99023.84;5070148;28;45499;-64
2022/04/07 07:34:41;;;;;;;;;3.25;1.00;;;;;14.08;69.10;99027.31;5071535;28;45309;-62
2022/04/07 07:37:07;;;;;;;;;3.00;3.00;;;;;14.08;69.18;99022.03;5071958;28;45338;-62
2022/04/07 07:39:33;;;;;;;;;3.00;1.00;;;;;14.12;69.24;99021.53;5072615;28;45266;-66
2022/04/07 07:41:58;;;;;;;;;0.00;0.00;;;;;14.17;69.28;99008.69;5070513;28;45710;-69
2022/04/07 07:44:24;;;;;;;;;2.00;1.00;;;;;14.23;69.12;99008.06;5071130;28;46285;-67
2022/04/07 07:46:50;;;;;;;;;4.50;2.50;;;;;14.28;69.30;99004.94;5071023;28;45390;-72
2022/04/07 07:49:16;;;;;;;;;0.00;0.00;;;;;14.30;68.94;99002.97;5073325;28;46532;-66
2022/04/07 07:51:42;;;;;;;;;1.50;0.00;;;;;14.30;69.07;99012.72;5072376;28;45676;-65
2022/04/07 07:54:08;;;;;;;;;2.00;1.00;;;;;14.33;69.10;99015.06;5071076;28;45382;-65
2022/04/07 07:56:34;;;;;;;;;2.00;0.50;;;;;14.36;68.83;98993.53;5070737;28;45408;-72
2022/04/07 07:58:59;;;;;;;;;0.00;0.00;;;;;14.37;68.72;99001.34;5068828;28;45436;-68
2022/04/07 08:01:26;;;;;;;;;0.50;0.50;;;;;14.38;68.95;99005.66;5069762;28;45542;-79
2022/04/07 08:03:52;;;;;;;;;1.00;0.75;;;;;14.43;69.43;98997.22;5068526;28;45456;-69
2022/04/07 08:06:17;;;;;;;;;0.00;0.00;;;;;14.52;68.75;99002.44;5069190;28;45355;-65
2022/04/07 08:08:44;;;;;;;;;0.25;0.00;;;;;14.60;68.80;99014.06;5072391;28;45295;-66
2022/04/07 08:11:09;;;;;;;;;0.00;0.00;;;;;14.62;68.60;98998.84;5070970;28;45673;-71
2022/04/07 08:13:35;;;;;;;;;1.00;0.00;;;;;14.69;68.61;98991.91;5072849;28;45402;-70
2022/04/07 08:16:00;;;;;;;;;0.00;0.00;;;;;14.74;68.17;99001.03;5070971;28;45338;-66
2022/04/07 08:18:26;;;;;;;;;0.25;0.25;;;;;14.77;68.71;98989.28;5069341;28;45462;-67
2022/04/07 08:20:51;;;;;;;;;0.00;0.00;;;;;14.85;68.56;98996.44;5085089;27;45426;-69
2022/04/07 08:23:17;;;;;;;;;0.00;0.00;;;;;14.91;70.96;98991.31;5077354;27;45828;-66
2022/04/07 08:25:43;;;;;;;;;0.00;0.00;;;;;14.98;69.29;98989.69;5070723;28;45231;-77
2022/04/07 08:28:09;;;;;;;;;0.00;0.00;;;;;15.04;68.74;98988.22;5071500;28;45382;-69
2022/04/07 08:30:35;;;;;;;;;0.00;0.00;;;;;15.15;68.23;98995.03;5069596;28;45568;-70
2022/04/07 08:33:02;;;;;;;;;0.00;0.00;;;;;15.31;67.79;98976.47;5065891;28;45834;-68
2022/04/07 08:35:28;;;;;;;;;0.75;0.00;;;;;15.45;67.33;98982.97;5066348;28;45326;-69
2022/04/07 08:37:53;;;;;;;;;0.00;0.00;;;;;15.57;67.13;98973.69;5069450;27;45339;-69
2022/04/07 08:40:21;;;;;;;;;0.75;0.00;;;;;15.65;66.65;98978.22;5069893;28;45505;-69
2022/04/07 08:42:47;;;;;;;;;0.00;0.00;;;;;15.76;66.31;98977.88;5068660;28;46221;-70
2022/04/07 08:45:13;;;;;;;;;0.00;0.00;;;;;15.90;66.03;98974.53;5070142;28;45288;-69
2022/04/07 08:47:40;;;;;;;;;0.75;0.75;;;;;16.06;65.72;98968.38;5057560;28;45585;-70
2022/04/07 08:50:07;;;;;;;;;1.00;0.00;;;;;16.17;65.23;98970.66;5058068;28;45652;-70
2022/04/07 08:52:33;;;;;;;;;0.25;0.00;;;;;16.24;64.79;98976.13;5058467;28;45527;-69
2022/04/07 08:54:59;;;;;;;;;0.00;0.00;;;;;16.26;64.46;98980.25;5074151;28;45536;-70
2022/04/07 08:57:26;;;;;;;;;0.00;0.00;;;;;16.31;64.52;98979.75;5057952;28;45431;-70
2022/04/07 08:59:52;;;;;;;;;0.00;0.00;;;;;16.35;64.14;98963.31;5058228;28;45386;-69
2022/04/07 09:02:17;;;;;;;;;0.00;0.00;;;;;16.37;63.72;98971.94;5058455;28;45379;-69
2022/04/07 09:04:44;;;;;;;;;1.00;0.00;;;;;16.41;63.61;98978.56;5059842;28;45276;-70
2022/04/07 09:07:13;;;;;;;;;0.00;0.00;;;;;16.47;63.55;98966.41;5059810;28;45359;-70
2022/04/07 09:09:38;;;;;;;;;0.00;0.00;;;;;16.43;63.41;98984.56;5058621;28;45364;-69
2022/04/07 09:12:05;;;;;;;;;0.00;0.00;;;;;16.46;63.48;98978.06;5077167;28;45316;-69
2022/04/07 09:14:35;;;;;;;;;0.00;0.00;;;;;16.50;63.44;98984.66;5080294;28;45402;-70
2022/04/07 09:17:02;;;;;;;;;0.00;0.00;;;;;16.54;63.36;98972.72;5080314;28;45282;-70
2022/04/07 09:19:35;;;;;;;;;0.50;0.00;;;;;16.59;63.20;98966.84;5080506;28;45448;-70
2022/04/07 09:22:08;;;;;;;;;0.00;0.00;;;;;16.64;63.24;98956.53;5075905;28;45466;-68
2022/04/07 09:24:38;;;;;;;;;0.00;0.00;;;;;16.68;63.01;98957.88;5060237;28;45219;-70
2022/04/07 09:27:06;;;;;;;;;0.00;0.00;;;;;16.77;62.80;98964.84;5060089;28;45353;-69
2022/04/07 09:29:45;;;;;;;;;1.00;0.00;;;;;16.83;62.48;98972.13;5060260;28;45256;-69
2022/04/07 09:32:21;;;;;;;;;0.50;0.00;;;;;16.80;62.87;98976.94;5067726;28;45648;-69
2022/04/07 09:34:58;;;;;;;;;0.00;0.00;;;;;16.77;62.36;98964.84;5080288;28;45335;-69
2022/04/07 09:37:26;;;;;;;;;0.00;0.00;;;;;16.73;62.50;98969.66;5080835;28;45475;-70
2022/04/07 09:40:10;;;;;;;;;0.00;0.00;;;;;16.78;62.66;98984.28;5076166;27;45501;-70
2022/04/07 09:42:36;;;;;;;;;0.25;0.00;;;;;16.88;62.56;98982.22;5059963;28;45545;-71
2022/04/07 09:45:07;;;;;;;;;0.00;0.00;;;;;16.95;62.45;98968.06;5066923;28;45304;-69
2022/04/07 09:47:41;;;;;;;;;4.00;0.25;;;;;16.98;61.89;98985.47;5080094;28;45292;-70
2022/04/07 09:50:10;;;;;;;;;0.00;0.00;;;;;16.99;61.74;98987.16;5080334;28;45328;-70
2022/04/07 09:52:40;;;;;;;;;0.00;0.00;;;;;16.95;61.84;98992.00;5079856;28;45480;-71
2022/04/07 09:55:08;;;;;;;;;0.00;0.00;;;;;16.92;61.63;99007.47;5080519;28;45400;-70
2022/04/07 09:57:34;;;;;;;;;0.00;0.00;;;;;16.83;62.72;99022.66;5082190;28;45342;-71
2022/04/07 10:00:05;;;;;;;;;1.00;0.00;;;;;16.82;62.73;99020.13;5084252;28;45291;-71
2022/04/07 10:02:30;;;;;;;;;0.00;0.00;;;;;16.74;63.30;99024.47;5083160;28;46025;-70
2022/04/07 10:04:57;;;;;;;;;0.00;0.00;;;;;16.69;63.32;99028.69;5084085;28;45223;-71
2022/04/07 10:07:25;;;;;;;;;0.00;0.00;;;;;16.65;63.62;99038.78;5083538;28;45401;-70
2022/04/07 10:09:51;;;;;;;;;0.00;0.00;;;;;16.54;64.44;99078.22;5079743;28;45252;-71
2022/04/07 10:12:18;;;;;;;;;2.00;0.50;;;;;16.33;65.22;99087.53;5081513;28;45395;-71
2022/04/07 10:14:44;;;;;;;;;1.50;0.00;;;;;16.13;66.30;99094.22;5083631;28;45169;-70
2022/04/07 10:17:13;;;;;;;;;0.00;0.00;;;;;16.03;66.47;99098.84;5081619;28;45286;-72
2022/04/07 10:19:44;;;;;;;;;0.00;0.00;;;;;15.98;65.80;99102.00;5083313;28;45603;-71
2022/04/07 10:22:16;;;;;;;;;0.00;0.00;;;;;15.93;65.93;99106.97;5077224;28;46181;-72
2022/04/07 10:24:46;;;;;;;;;0.00;0.00;;;;;15.88;66.49;99091.56;5062574;28;45492;-72
2022/04/07 10:27:14;;;;;;;;;0.00;0.00;;;;;15.96;66.36;99101.34;5070257;28;45319;-71
2022/04/07 10:29:40;;;;;;;;;0.00;0.00;;;;;15.98;66.86;99123.25;5082849;28;45496;-72
2022/04/07 10:32:11;;;;;;;;;0.50;0.50;;;;;16.10;66.96;99123.75;5082692;28;45841;-72
2022/04/07 10:34:53;;;;;;;;;0.00;0.00;;;;;16.14;66.50;99139.19;5082459;28;45484;-70
2022/04/07 10:37:29;;;;;;;;;0.00;0.00;;;;;16.16;65.40;99129.22;5081972;28;45292;-71
2022/04/07 10:39:55;;;;;;;;;0.00;0.00;;;;;16.21;64.74;99138.53;5076279;28;45242;-71
2022/04/07 10:43:19;;;;;;;;;0.00;0.00;;;;;16.21;64.59;99150.00;5062482;28;45422;-70
2022/04/07 10:45:48;;;;;;;;;0.00;0.00;;;;;16.23;64.15;99158.63;5020268;28;45415;-71
2022/04/07 10:48:17;;;;;;;;;0.25;0.00;;;;;16.21;63.80;99155.31;5020225;28;45349;-70
2022/04/07 10:50:59;;;;;;;;;0.50;0.00;;;;;16.16;63.92;99160.28;5041746;28;45248;-71
2022/04/07 10:53:27;;;;;;;;;0.00;0.00;;;;;16.10;63.47;99156.44;5083049;28;45413;-70
2022/04/07 10:56:13;;;;;;;;;0.00;0.00;;;;;16.16;63.53;99176.22;5082652;28;45232;-71
2022/04/07 10:58:42;;;;;;;;;1.50;0.00;;;;;16.30;63.16;99172.09;5083028;28;45290;-71
2022/04/07 11:01:14;;;;;;;;;0.00;0.00;;;;;16.37;62.81;99167.75;5082401;28;46704;-69
2022/04/07 11:03:41;;;;;;;;;0.00;0.00;;;;;16.49;62.60;99185.03;5081871;28;45327;-71
2022/04/07 11:06:07;;;;;;;;;0.00;0.00;;;;;16.60;61.21;99187.34;5082255;28;45466;-70
2022/04/07 11:08:33;;;;;;;;;0.00;0.00;;;;;16.60;60.92;99173.25;5082448;27;45326;-71
2022/04/07 11:10:59;;;;;;;;;1.00;0.00;;;;;16.52;60.83;99194.50;5076321;28;45334;-71
2022/04/07 11:13:45;;;;;;;;;0.00;0.00;;;;;16.37;60.39;99189.84;5082798;28;45384;-70
2022/04/07 11:16:36;;;;;;;;;0.00;0.00;;;;;16.25;60.42;99191.16;5082400;28;45389;-70
2022/04/07 11:19:50;;;;;;;;;0.00;0.00;;;;;16.21;60.91;99186.34;5082483;28;45261;-70
2022/04/07 11:22:17;;;;;;;;;0.00;0.00;;;;;16.27;60.65;99188.34;5062604;28;45319;-69
2022/04/07 11:24:43;;;;;;;;;3.00;0.00;;;;;16.29;60.17;99195.16;5061510;28;46403;-69
2022/04/07 11:27:32;;;;;;;;;0.75;0.00;;;;;16.33;59.46;99215.09;5061947;28;45374;-70
2022/04/07 11:30:06;;;;;;;;;0.00;0.00;;;;;16.45;58.92;99219.09;5061904;28;45255;-70
2022/04/07 11:32:32;;;;;;;;;0.00;0.00;;;;;16.50;57.95;99223.88;5062045;28;45418;-69
2022/04/07 11:35:11;;;;;;;;;0.00;0.00;;;;;16.56;57.59;99220.56;5077058;28;45506;-69